sensor_id;sensor_type;location;lat;lon;timestamp;temperature;humidity
9768;DHT22;4923;52.520;13.494;2024-03-02T00:02:09;8.20;99.90
9768;DHT22;4923;52.520;13.494;2024-03-02T00:04:56;8.20;99.90
9768;DHT22;4923;52.520;13.494;2024-03-02T00:07:44;8.30;99.90
9768;DHT22;4923;52.520;13.494;2024-03-02T00:10:36;8.30;99.90
9768;DHT22;4923;52.520;13.494;2024-03-02T00:13:25;8.30;99.90
9768;DHT22;4923;52.520;13.494;2024-03-02T00:16:12;8.30;99.90
9768;DHT22;4923;52.520;13.494;2024-03-02T00:19:03;8.30;99.90
9768;DHT22;4923;52.520;13.494;2024-03-02T00:21:51;8.30;99.90
9768;DHT22;4923;52.520;13.494;2024-03-02T00:24:39;8.30;99.90
9768;DHT22;4923;52.520;13.494;2024-03-02T00:27:26;8.30;99.90
9768;DHT22;4923;52.520;13.494;2024-03-02T00:30:38;8.30;99.90
9768;DHT22;4923;52.520;13.494;2024-03-02T00:33:30;8.50;99.90
9768;DHT22;4923;52.520;13.494;2024-03-02T00:36:25;8.50;99.90
9768;DHT22;4923;52.520;13.494;2024-03-02T00:39:15;8.50;99.90
9768;DHT22;4923;52.520;13.494;2024-03-02T00:42:03;8.60;99.90
9768;DHT22;4923;52.520;13.494;2024-03-02T00:44:50;8.50;99.90
9768;DHT22;4923;52.520;13.494;2024-03-02T00:47:38;8.60;99.90
9768;DHT22;4923;52.520;13.494;2024-03-02T00:50:25;8.60;99.90
9768;DHT22;4923;52.520;13.494;2024-03-02T00:53:14;8.60;99.90
9768;DHT22;4923;52.520;13.494;2024-03-02T00:56:01;8.70;99.90
9768;DHT22;4923;52.520;13.494;2024-03-02T00:58:48;8.70;99.90
9768;DHT22;4923;52.520;13.494;2024-03-02T01:01:35;8.70;99.90
9768;DHT22;4923;52.520;13.494;2024-03-02T01:04:22;8.60;99.90
9768;DHT22;4923;52.520;13.494;2024-03-02T01:07:09;8.70;99.90
9768;DHT22;4923;52.520;13.494;2024-03-02T01:09:57;8.70;99.90
9768;DHT22;4923;52.520;13.494;2024-03-02T01:12:44;8.70;99.90
9768;DHT22;4923;52.520;13.494;2024-03-02T01:15:31;8.70;99.90
9768;DHT22;4923;52.520;13.494;2024-03-02T01:18:19;8.70;99.90
9768;DHT22;4923;52.520;13.494;2024-03-02T01:21:05;8.80;99.90
9768;DHT22;4923;52.520;13.494;2024-03-02T01:23:52;8.70;99.90
9768;DHT22;4923;52.520;13.494;2024-03-02T01:26:41;8.80;99.90
9768;DHT22;4923;52.520;13.494;2024-03-02T01:29:27;8.80;99.90
9768;DHT22;4923;52.520;13.494;2024-03-02T01:32:14;8.80;99.90
9768;DHT22;4923;52.520;13.494;2024-03-02T01:35:01;8.80;99.90
9768;DHT22;4923;52.520;13.494;2024-03-02T01:37:48;8.90;99.90
9768;DHT22;4923;52.520;13.494;2024-03-02T01:40:36;8.80;99.90
9768;DHT22;4923;52.520;13.494;2024-03-02T01:43:25;8.90;99.90
9768;DHT22;4923;52.520;13.494;2024-03-02T01:46:12;8.80;99.90
9768;DHT22;4923;52.520;13.494;2024-03-02T01:48:59;8.90;99.90
9768;DHT22;4923;52.520;13.494;2024-03-02T01:51:45;8.90;99.90
9768;DHT22;4923;52.520;13.494;2024-03-02T01:54:32;8.90;99.90
9768;DHT22;4923;52.520;13.494;2024-03-02T01:57:20;8.90;99.90
9768;DHT22;4923;52.520;13.494;2024-03-02T02:00:09;8.90;99.90
9768;DHT22;4923;52.520;13.494;2024-03-02T02:02:57;8.90;99.90
9768;DHT22;4923;52.520;13.494;2024-03-02T02:05:44;8.90;99.90
9768;DHT22;4923;52.520;13.494;2024-03-02T02:08:31;8.90;99.90
9768;DHT22;4923;52.520;13.494;2024-03-02T02:11:18;8.90;99.90
9768;DHT22;4923;52.520;13.494;2024-03-02T02:14:06;9.00;99.90
9768;DHT22;4923;52.520;13.494;2024-03-02T02:16:54;8.90;99.90
9768;DHT22;4923;52.520;13.494;2024-03-02T02:19:41;8.90;99.90
9768;DHT22;4923;52.520;13.494;2024-03-02T02:22:29;8.80;99.90
9768;DHT22;4923;52.520;13.494;2024-03-02T02:25:16;8.80;99.90
9768;DHT22;4923;52.520;13.494;2024-03-02T02:28:03;8.80;99.90
9768;DHT22;4923;52.520;13.494;2024-03-02T02:30:50;8.80;99.90
9768;DHT22;4923;52.520;13.494;2024-03-02T02:33:39;8.90;99.90
9768;DHT22;4923;52.520;13.494;2024-03-02T02:36:26;8.90;99.90
9768;DHT22;4923;52.520;13.494;2024-03-02T02:39:16;8.90;99.90
9768;DHT22;4923;52.520;13.494;2024-03-02T02:42:05;8.90;99.90
9768;DHT22;4923;52.520;13.494;2024-03-02T02:44:52;8.90;99.90
9768;DHT22;4923;52.520;13.494;2024-03-02T02:47:40;8.90;99.90
9768;DHT22;4923;52.520;13.494;2024-03-02T02:50:26;9.00;99.90
9768;DHT22;4923;52.520;13.494;2024-03-02T02:53:13;9.00;99.90
9768;DHT22;4923;52.520;13.494;2024-03-02T02:56:02;9.00;99.90
9768;DHT22;4923;52.520;13.494;2024-03-02T02:58:48;9.00;99.90
9768;DHT22;4923;52.520;13.494;2024-03-02T03:01:35;9.00;1.00
9768;DHT22;4923;52.520;13.494;2024-03-02T03:04:22;9.00;1.00
9768;DHT22;4923;52.520;13.494;2024-03-02T03:07:09;9.00;1.00
9768;DHT22;4923;52.520;13.494;2024-03-02T03:09:56;9.10;1.00
9768;DHT22;4923;52.520;13.494;2024-03-02T03:12:44;9.00;1.00
9768;DHT22;4923;52.520;13.494;2024-03-02T03:15:31;9.00;1.00
9768;DHT22;4923;52.520;13.494;2024-03-02T03:18:18;9.00;1.00
9768;DHT22;4923;52.520;13.494;2024-03-02T03:21:05;9.10;1.00
9768;DHT22;4923;52.520;13.494;2024-03-02T03:23:52;9.20;1.00
9768;DHT22;4923;52.520;13.494;2024-03-02T03:26:42;9.10;1.00
9768;DHT22;4923;52.520;13.494;2024-03-02T03:29:30;9.10;1.00
9768;DHT22;4923;52.520;13.494;2024-03-02T03:32:17;9.10;1.00
9768;DHT22;4923;52.520;13.494;2024-03-02T03:35:05;9.10;1.00
9768;DHT22;4923;52.520;13.494;2024-03-02T03:37:53;9.10;1.00
9768;DHT22;4923;52.520;13.494;2024-03-02T03:40:39;9.20;1.00
9768;DHT22;4923;52.520;13.494;2024-03-02T03:43:27;9.20;1.00
9768;DHT22;4923;52.520;13.494;2024-03-02T03:46:15;9.20;1.00
9768;DHT22;4923;52.520;13.494;2024-03-02T03:49:02;9.20;1.00
9768;DHT22;4923;52.520;13.494;2024-03-02T03:51:51;9.20;1.00
9768;DHT22;4923;52.520;13.494;2024-03-02T03:54:37;9.20;1.00
9768;DHT22;4923;52.520;13.494;2024-03-02T03:57:24;9.10;1.00
9768;DHT22;4923;52.520;13.494;2024-03-02T04:00:12;9.20;1.00
9768;DHT22;4923;52.520;13.494;2024-03-02T04:03:00;9.30;1.00
9768;DHT22;4923;52.520;13.494;2024-03-02T04:05:47;9.30;1.00
9768;DHT22;4923;52.520;13.494;2024-03-02T04:08:34;9.20;1.00
9768;DHT22;4923;52.520;13.494;2024-03-02T04:11:21;9.20;1.00
9768;DHT22;4923;52.520;13.494;2024-03-02T04:14:08;9.20;1.00
9768;DHT22;4923;52.520;13.494;2024-03-02T04:16:55;9.20;1.00
9768;DHT22;4923;52.520;13.494;2024-03-02T04:19:43;9.20;1.00
9768;DHT22;4923;52.520;13.494;2024-03-02T04:22:32;9.10;1.00
9768;DHT22;4923;52.520;13.494;2024-03-02T04:25:19;9.20;1.00
9768;DHT22;4923;52.520;13.494;2024-03-02T04:28:06;9.20;1.00
9768;DHT22;4923;52.520;13.494;2024-03-02T04:30:53;9.20;1.00
9768;DHT22;4923;52.520;13.494;2024-03-02T04:33:40;9.20;1.00
9768;DHT22;4923;52.520;13.494;2024-03-02T04:36:28;9.20;1.00
9768;DHT22;4923;52.520;13.494;2024-03-02T04:39:15;9.10;1.00
9768;DHT22;4923;52.520;13.494;2024-03-02T04:42:03;9.10;1.00
9768;DHT22;4923;52.520;13.494;2024-03-02T04:44:49;9.10;1.00
9768;DHT22;4923;52.520;13.494;2024-03-02T04:47:36;9.10;1.00
9768;DHT22;4923;52.520;13.494;2024-03-02T04:50:23;9.10;1.00
9768;DHT22;4923;52.520;13.494;2024-03-02T04:53:11;9.10;1.00
9768;DHT22;4923;52.520;13.494;2024-03-02T04:55:58;9.20;1.00
9768;DHT22;4923;52.520;13.494;2024-03-02T04:59:06;9.20;1.00
9768;DHT22;4923;52.520;13.494;2024-03-02T05:01:53;9.20;1.00
9768;DHT22;4923;52.520;13.494;2024-03-02T05:04:39;9.20;1.00
9768;DHT22;4923;52.520;13.494;2024-03-02T05:07:27;9.30;1.00
9768;DHT22;4923;52.520;13.494;2024-03-02T05:10:15;9.30;1.00
9768;DHT22;4923;52.520;13.494;2024-03-02T05:13:03;9.30;1.00
9768;DHT22;4923;52.520;13.494;2024-03-02T05:15:50;9.30;1.00
9768;DHT22;4923;52.520;13.494;2024-03-02T05:18:37;9.30;1.00
9768;DHT22;4923;52.520;13.494;2024-03-02T05:21:24;9.30;1.00
9768;DHT22;4923;52.520;13.494;2024-03-02T05:24:11;9.40;1.00
9768;DHT22;4923;52.520;13.494;2024-03-02T05:26:59;9.40;1.00
9768;DHT22;4923;52.520;13.494;2024-03-02T05:29:46;9.40;1.00
9768;DHT22;4923;52.520;13.494;2024-03-02T05:32:33;9.30;1.00
9768;DHT22;4923;52.520;13.494;2024-03-02T05:35:20;9.30;1.00
9768;DHT22;4923;52.520;13.494;2024-03-02T05:38:07;9.30;1.00
9768;DHT22;4923;52.520;13.494;2024-03-02T05:40:54;9.30;1.00
9768;DHT22;4923;52.520;13.494;2024-03-02T05:43:42;9.30;1.00
9768;DHT22;4923;52.520;13.494;2024-03-02T05:46:29;9.40;1.00
9768;DHT22;4923;52.520;13.494;2024-03-02T05:49:16;9.50;1.00
9768;DHT22;4923;52.520;13.494;2024-03-02T05:52:03;9.50;1.00
9768;DHT22;4923;52.520;13.494;2024-03-02T05:54:50;9.40;1.00
9768;DHT22;4923;52.520;13.494;2024-03-02T05:57:37;9.40;1.00
9768;DHT22;4923;52.520;13.494;2024-03-02T06:00:42;9.30;1.00
9768;DHT22;4923;52.520;13.494;2024-03-02T06:03:29;9.40;1.00
9768;DHT22;4923;52.520;13.494;2024-03-02T06:06:16;9.50;1.00
9768;DHT22;4923;52.520;13.494;2024-03-02T06:09:03;9.50;1.00
9768;DHT22;4923;52.520;13.494;2024-03-02T06:11:52;9.40;1.00
9768;DHT22;4923;52.520;13.494;2024-03-02T06:14:39;9.40;1.00
9768;DHT22;4923;52.520;13.494;2024-03-02T06:17:27;9.40;1.00
9768;DHT22;4923;52.520;13.494;2024-03-02T06:20:14;9.40;1.00
9768;DHT22;4923;52.520;13.494;2024-03-02T06:23:01;9.40;1.00
9768;DHT22;4923;52.520;13.494;2024-03-02T06:25:48;9.50;1.00
9768;DHT22;4923;52.520;13.494;2024-03-02T06:28:35;9.40;1.00
9768;DHT22;4923;52.520;13.494;2024-03-02T06:31:22;9.40;1.00
9768;DHT22;4923;52.520;13.494;2024-03-02T06:34:10;9.40;1.00
9768;DHT22;4923;52.520;13.494;2024-03-02T06:36:57;9.40;1.00
9768;DHT22;4923;52.520;13.494;2024-03-02T06:39:44;9.40;1.00
9768;DHT22;4923;52.520;13.494;2024-03-02T06:42:31;9.40;1.00
9768;DHT22;4923;52.520;13.494;2024-03-02T06:45:19;9.50;1.00
9768;DHT22;4923;52.520;13.494;2024-03-02T06:48:06;9.50;1.00
9768;DHT22;4923;52.520;13.494;2024-03-02T06:50:55;9.40;1.00
9768;DHT22;4923;52.520;13.494;2024-03-02T06:53:43;9.40;1.00
9768;DHT22;4923;52.520;13.494;2024-03-02T06:56:30;9.50;1.00
9768;DHT22;4923;52.520;13.494;2024-03-02T06:59:18;9.50;1.00
9768;DHT22;4923;52.520;13.494;2024-03-02T07:02:05;9.50;1.00
9768;DHT22;4923;52.520;13.494;2024-03-02T07:04:52;9.50;1.00
9768;DHT22;4923;52.520;13.494;2024-03-02T07:07:40;9.60;1.00
9768;DHT22;4923;52.520;13.494;2024-03-02T07:10:27;9.60;1.00
9768;DHT22;4923;52.520;13.494;2024-03-02T07:13:14;9.60;1.00
9768;DHT22;4923;52.520;13.494;2024-03-02T07:16:01;9.60;1.00
9768;DHT22;4923;52.520;13.494;2024-03-02T07:19:13;9.60;1.00
9768;DHT22;4923;52.520;13.494;2024-03-02T07:22:00;9.60;1.00
9768;DHT22;4923;52.520;13.494;2024-03-02T07:24:49;9.70;99.90
9768;DHT22;4923;52.520;13.494;2024-03-02T07:27:35;9.70;99.90
9768;DHT22;4923;52.520;13.494;2024-03-02T07:30:22;9.80;99.90
9768;DHT22;4923;52.520;13.494;2024-03-02T07:33:09;9.70;99.90
9768;DHT22;4923;52.520;13.494;2024-03-02T07:35:57;9.70;99.90
9768;DHT22;4923;52.520;13.494;2024-03-02T07:38:45;9.70;99.90
9768;DHT22;4923;52.520;13.494;2024-03-02T07:41:37;9.70;99.90
9768;DHT22;4923;52.520;13.494;2024-03-02T07:44:24;9.80;99.90
9768;DHT22;4923;52.520;13.494;2024-03-02T07:47:11;9.90;99.90
9768;DHT22;4923;52.520;13.494;2024-03-02T07:49:58;9.80;99.90
9768;DHT22;4923;52.520;13.494;2024-03-02T07:52:45;9.90;99.90
9768;DHT22;4923;52.520;13.494;2024-03-02T07:55:32;9.90;99.90
9768;DHT22;4923;52.520;13.494;2024-03-02T07:58:20;10.00;99.90
9768;DHT22;4923;52.520;13.494;2024-03-02T08:01:07;10.00;99.90
9768;DHT22;4923;52.520;13.494;2024-03-02T08:03:54;10.00;99.90
9768;DHT22;4923;52.520;13.494;2024-03-02T08:06:42;10.10;1.00
9768;DHT22;4923;52.520;13.494;2024-03-02T08:09:29;10.20;99.90
9768;DHT22;4923;52.520;13.494;2024-03-02T08:12:16;10.30;99.90
9768;DHT22;4923;52.520;13.494;2024-03-02T08:15:07;10.30;99.90
9768;DHT22;4923;52.520;13.494;2024-03-02T08:17:54;10.40;99.90
9768;DHT22;4923;52.520;13.494;2024-03-02T08:20:42;10.40;99.90
9768;DHT22;4923;52.520;13.494;2024-03-02T08:23:28;10.40;99.90
9768;DHT22;4923;52.520;13.494;2024-03-02T08:26:16;10.30;99.90
9768;DHT22;4923;52.520;13.494;2024-03-02T08:29:03;10.30;99.90
9768;DHT22;4923;52.520;13.494;2024-03-02T08:31:51;10.20;99.90
9768;DHT22;4923;52.520;13.494;2024-03-02T08:34:38;10.30;99.90
9768;DHT22;4923;52.520;13.494;2024-03-02T08:37:25;10.30;99.90
9768;DHT22;4923;52.520;13.494;2024-03-02T08:40:12;10.50;99.90
9768;DHT22;4923;52.520;13.494;2024-03-02T08:42:59;10.50;99.90
9768;DHT22;4923;52.520;13.494;2024-03-02T08:45:46;10.50;99.90
9768;DHT22;4923;52.520;13.494;2024-03-02T08:48:35;10.40;99.90
9768;DHT22;4923;52.520;13.494;2024-03-02T08:51:22;10.60;99.90
9768;DHT22;4923;52.520;13.494;2024-03-02T08:54:09;10.60;99.90
9768;DHT22;4923;52.520;13.494;2024-03-02T08:56:56;10.60;99.90
9768;DHT22;4923;52.520;13.494;2024-03-02T08:59:42;10.70;99.90
9768;DHT22;4923;52.520;13.494;2024-03-02T09:02:29;10.80;99.90
9768;DHT22;4923;52.520;13.494;2024-03-02T09:05:18;10.90;99.90
9768;DHT22;4923;52.520;13.494;2024-03-02T09:08:05;11.00;99.90
9768;DHT22;4923;52.520;13.494;2024-03-02T09:10:52;11.00;99.90
9768;DHT22;4923;52.520;13.494;2024-03-02T09:13:39;10.90;99.90
9768;DHT22;4923;52.520;13.494;2024-03-02T09:16:26;10.90;99.90
9768;DHT22;4923;52.520;13.494;2024-03-02T09:19:16;10.90;99.90
9768;DHT22;4923;52.520;13.494;2024-03-02T09:22:05;10.90;99.90
9768;DHT22;4923;52.520;13.494;2024-03-02T09:24:52;10.90;99.90
9768;DHT22;4923;52.520;13.494;2024-03-02T09:27:39;11.10;99.90
9768;DHT22;4923;52.520;13.494;2024-03-02T09:30:26;11.20;99.90
9768;DHT22;4923;52.520;13.494;2024-03-02T09:33:13;11.20;99.90
9768;DHT22;4923;52.520;13.494;2024-03-02T09:36:00;11.50;99.90
9768;DHT22;4923;52.520;13.494;2024-03-02T09:38:48;11.70;99.90
9768;DHT22;4923;52.520;13.494;2024-03-02T09:41:36;11.90;99.90
9768;DHT22;4923;52.520;13.494;2024-03-02T09:44:23;12.00;99.90
9768;DHT22;4923;52.520;13.494;2024-03-02T09:47:11;12.30;99.90
9768;DHT22;4923;52.520;13.494;2024-03-02T09:49:58;12.40;99.90
9768;DHT22;4923;52.520;13.494;2024-03-02T09:52:48;12.70;99.90
9768;DHT22;4923;52.520;13.494;2024-03-02T09:55:36;12.80;99.90
9768;DHT22;4923;52.520;13.494;2024-03-02T09:58:24;13.00;99.90
9768;DHT22;4923;52.520;13.494;2024-03-02T10:01:11;13.00;99.90
9768;DHT22;4923;52.520;13.494;2024-03-02T10:03:59;13.20;99.90
9768;DHT22;4923;52.520;13.494;2024-03-02T10:06:46;13.40;99.90
9768;DHT22;4923;52.520;13.494;2024-03-02T10:09:33;13.40;99.90
9768;DHT22;4923;52.520;13.494;2024-03-02T10:12:21;13.60;99.90
9768;DHT22;4923;52.520;13.494;2024-03-02T10:15:08;13.70;99.90
9768;DHT22;4923;52.520;13.494;2024-03-02T10:17:55;13.80;99.90
9768;DHT22;4923;52.520;13.494;2024-03-02T10:20:43;13.90;99.90
9768;DHT22;4923;52.520;13.494;2024-03-02T10:23:30;13.90;99.90
9768;DHT22;4923;52.520;13.494;2024-03-02T10:26:17;13.90;99.90
9768;DHT22;4923;52.520;13.494;2024-03-02T10:29:07;13.80;99.90
9768;DHT22;4923;52.520;13.494;2024-03-02T10:31:55;13.80;99.90
9768;DHT22;4923;52.520;13.494;2024-03-02T10:34:46;14.10;99.90
9768;DHT22;4923;52.520;13.494;2024-03-02T10:37:34;14.30;99.90
9768;DHT22;4923;52.520;13.494;2024-03-02T10:40:21;14.60;99.90
9768;DHT22;4923;52.520;13.494;2024-03-02T10:43:09;14.30;99.90
9768;DHT22;4923;52.520;13.494;2024-03-02T10:45:58;14.10;99.90
9768;DHT22;4923;52.520;13.494;2024-03-02T10:48:46;14.20;99.90
9768;DHT22;4923;52.520;13.494;2024-03-02T10:51:34;14.20;99.90
9768;DHT22;4923;52.520;13.494;2024-03-02T10:54:23;14.30;99.90
9768;DHT22;4923;52.520;13.494;2024-03-02T10:57:14;14.30;99.90
9768;DHT22;4923;52.520;13.494;2024-03-02T11:00:06;14.30;99.90
9768;DHT22;4923;52.520;13.494;2024-03-02T11:03:06;14.30;99.90
9768;DHT22;4923;52.520;13.494;2024-03-02T11:05:54;14.30;99.90
9768;DHT22;4923;52.520;13.494;2024-03-02T11:08:43;14.20;99.90
9768;DHT22;4923;52.520;13.494;2024-03-02T11:11:32;14.30;99.90
9768;DHT22;4923;52.520;13.494;2024-03-02T11:14:24;14.50;99.90
9768;DHT22;4923;52.520;13.494;2024-03-02T11:17:13;14.60;99.90
9768;DHT22;4923;52.520;13.494;2024-03-02T11:20:04;14.80;99.90
9768;DHT22;4923;52.520;13.494;2024-03-02T11:22:54;15.10;99.90
9768;DHT22;4923;52.520;13.494;2024-03-02T11:25:41;15.20;99.90
9768;DHT22;4923;52.520;13.494;2024-03-02T11:28:35;15.00;99.90
9768;DHT22;4923;52.520;13.494;2024-03-02T11:31:58;14.90;99.90
9768;DHT22;4923;52.520;13.494;2024-03-02T11:34:47;15.00;99.90
9768;DHT22;4923;52.520;13.494;2024-03-02T11:37:36;14.80;99.90
9768;DHT22;4923;52.520;13.494;2024-03-02T11:40:24;14.90;99.90
9768;DHT22;4923;52.520;13.494;2024-03-02T11:43:12;15.00;99.90
9768;DHT22;4923;52.520;13.494;2024-03-02T11:46:00;15.20;99.90
9768;DHT22;4923;52.520;13.494;2024-03-02T11:48:49;15.20;99.90
9768;DHT22;4923;52.520;13.494;2024-03-02T11:51:38;15.30;99.90
9768;DHT22;4923;52.520;13.494;2024-03-02T11:54:39;15.50;99.90
9768;DHT22;4923;52.520;13.494;2024-03-02T11:57:27;15.70;99.90
9768;DHT22;4923;52.520;13.494;2024-03-02T12:00:17;15.50;99.90
9768;DHT22;4923;52.520;13.494;2024-03-02T12:03:05;15.40;99.90
9768;DHT22;4923;52.520;13.494;2024-03-02T12:05:54;15.30;99.90
9768;DHT22;4923;52.520;13.494;2024-03-02T12:08:41;15.50;99.90
9768;DHT22;4923;52.520;13.494;2024-03-02T12:11:30;15.90;99.90
9768;DHT22;4923;52.520;13.494;2024-03-02T12:14:17;16.10;99.90
9768;DHT22;4923;52.520;13.494;2024-03-02T12:17:04;16.10;99.90
9768;DHT22;4923;52.520;13.494;2024-03-02T12:19:51;16.20;99.90
9768;DHT22;4923;52.520;13.494;2024-03-02T12:22:38;16.50;99.90
9768;DHT22;4923;52.520;13.494;2024-03-02T12:25:25;16.80;99.90
9768;DHT22;4923;52.520;13.494;2024-03-02T12:28:14;17.00;99.90
9768;DHT22;4923;52.520;13.494;2024-03-02T12:31:01;17.10;99.90
9768;DHT22;4923;52.520;13.494;2024-03-02T12:33:48;17.10;99.90
9768;DHT22;4923;52.520;13.494;2024-03-02T12:36:37;17.00;99.90
9768;DHT22;4923;52.520;13.494;2024-03-02T12:39:24;16.80;99.90
9768;DHT22;4923;52.520;13.494;2024-03-02T12:42:12;16.80;99.90
9768;DHT22;4923;52.520;13.494;2024-03-02T12:45:01;16.60;99.90
9768;DHT22;4923;52.520;13.494;2024-03-02T12:47:48;16.50;99.90
9768;DHT22;4923;52.520;13.494;2024-03-02T12:50:35;16.90;99.90
9768;DHT22;4923;52.520;13.494;2024-03-02T12:53:22;17.10;99.90
9768;DHT22;4923;52.520;13.494;2024-03-02T12:56:09;17.10;99.90
9768;DHT22;4923;52.520;13.494;2024-03-02T12:58:56;17.20;99.90
9768;DHT22;4923;52.520;13.494;2024-03-02T13:01:51;16.70;99.90
9768;DHT22;4923;52.520;13.494;2024-03-02T13:04:38;16.20;99.90
9768;DHT22;4923;52.520;13.494;2024-03-02T13:07:25;16.20;99.90
9768;DHT22;4923;52.520;13.494;2024-03-02T13:10:12;16.10;99.90
9768;DHT22;4923;52.520;13.494;2024-03-02T13:13:00;16.40;99.90
9768;DHT22;4923;52.520;13.494;2024-03-02T13:15:47;16.50;99.90
9768;DHT22;4923;52.520;13.494;2024-03-02T13:18:36;16.40;99.90
9768;DHT22;4923;52.520;13.494;2024-03-02T13:21:22;16.50;99.90
9768;DHT22;4923;52.520;13.494;2024-03-02T13:24:09;16.50;99.90
9768;DHT22;4923;52.520;13.494;2024-03-02T13:26:56;16.50;99.90
9768;DHT22;4923;52.520;13.494;2024-03-02T13:29:43;16.70;99.90
9768;DHT22;4923;52.520;13.494;2024-03-02T13:32:30;16.70;99.90
9768;DHT22;4923;52.520;13.494;2024-03-02T13:35:19;16.70;99.90
9768;DHT22;4923;52.520;13.494;2024-03-02T13:38:05;16.20;99.90
9768;DHT22;4923;52.520;13.494;2024-03-02T13:40:52;16.20;99.90
9768;DHT22;4923;52.520;13.494;2024-03-02T13:43:39;16.10;99.90
9768;DHT22;4923;52.520;13.494;2024-03-02T13:46:26;16.10;99.90
9768;DHT22;4923;52.520;13.494;2024-03-02T13:49:13;16.20;99.90
9768;DHT22;4923;52.520;13.494;2024-03-02T13:52:03;16.20;99.90
9768;DHT22;4923;52.520;13.494;2024-03-02T13:54:55;15.90;99.90
9768;DHT22;4923;52.520;13.494;2024-03-02T13:57:42;15.90;99.90
9768;DHT22;4923;52.520;13.494;2024-03-02T14:00:29;15.90;99.90
9768;DHT22;4923;52.520;13.494;2024-03-02T14:03:16;16.00;99.90
9768;DHT22;4923;52.520;13.494;2024-03-02T14:06:04;16.10;99.90
9768;DHT22;4923;52.520;13.494;2024-03-02T14:08:53;16.10;99.90
9768;DHT22;4923;52.520;13.494;2024-03-02T14:11:40;16.00;99.90
9768;DHT22;4923;52.520;13.494;2024-03-02T14:14:27;15.90;99.90
9768;DHT22;4923;52.520;13.494;2024-03-02T14:17:14;15.90;99.90
9768;DHT22;4923;52.520;13.494;2024-03-02T14:20:01;15.90;99.90
9768;DHT22;4923;52.520;13.494;2024-03-02T14:22:50;15.80;99.90
9768;DHT22;4923;52.520;13.494;2024-03-02T14:25:38;15.90;99.90
9768;DHT22;4923;52.520;13.494;2024-03-02T14:28:25;16.00;99.90
9768;DHT22;4923;52.520;13.494;2024-03-02T14:31:12;15.80;99.90
9768;DHT22;4923;52.520;13.494;2024-03-02T14:33:59;15.80;99.90
9768;DHT22;4923;52.520;13.494;2024-03-02T14:36:46;15.80;99.90
9768;DHT22;4923;52.520;13.494;2024-03-02T14:39:33;15.60;99.90
9768;DHT22;4923;52.520;13.494;2024-03-02T14:42:22;15.70;99.90
9768;DHT22;4923;52.520;13.494;2024-03-02T14:45:09;15.60;99.90
9768;DHT22;4923;52.520;13.494;2024-03-02T14:47:56;15.40;99.90
9768;DHT22;4923;52.520;13.494;2024-03-02T14:50:45;15.20;99.90
9768;DHT22;4923;52.520;13.494;2024-03-02T14:53:32;15.20;99.90
9768;DHT22;4923;52.520;13.494;2024-03-02T14:56:19;15.10;99.90
9768;DHT22;4923;52.520;13.494;2024-03-02T14:59:07;15.10;99.90
9768;DHT22;4923;52.520;13.494;2024-03-02T15:01:54;15.10;99.90
9768;DHT22;4923;52.520;13.494;2024-03-02T15:04:41;14.90;99.90
9768;DHT22;4923;52.520;13.494;2024-03-02T15:07:29;14.80;99.90
9768;DHT22;4923;52.520;13.494;2024-03-02T15:10:16;14.70;99.90
9768;DHT22;4923;52.520;13.494;2024-03-02T15:13:03;14.70;99.90
9768;DHT22;4923;52.520;13.494;2024-03-02T15:15:51;14.70;99.90
9768;DHT22;4923;52.520;13.494;2024-03-02T15:18:38;14.60;99.90
9768;DHT22;4923;52.520;13.494;2024-03-02T15:21:25;14.50;99.90
9768;DHT22;4923;52.520;13.494;2024-03-02T15:24:12;14.30;99.90
9768;DHT22;4923;52.520;13.494;2024-03-02T15:26:59;14.30;99.90
9768;DHT22;4923;52.520;13.494;2024-03-02T15:29:49;14.20;99.90
9768;DHT22;4923;52.520;13.494;2024-03-02T15:32:39;14.10;99.90
9768;DHT22;4923;52.520;13.494;2024-03-02T15:35:26;14.00;99.90
9768;DHT22;4923;52.520;13.494;2024-03-02T15:38:12;14.00;99.90
9768;DHT22;4923;52.520;13.494;2024-03-02T15:41:00;13.90;99.90
9768;DHT22;4923;52.520;13.494;2024-03-02T15:43:48;13.80;99.90
9768;DHT22;4923;52.520;13.494;2024-03-02T15:46:34;13.70;99.90
9768;DHT22;4923;52.520;13.494;2024-03-02T15:49:23;13.50;99.90
9768;DHT22;4923;52.520;13.494;2024-03-02T15:52:10;13.30;99.90
9768;DHT22;4923;52.520;13.494;2024-03-02T15:54:56;13.20;99.90
9768;DHT22;4923;52.520;13.494;2024-03-02T15:57:43;13.00;99.90
9768;DHT22;4923;52.520;13.494;2024-03-02T16:00:30;12.90;99.90
9768;DHT22;4923;52.520;13.494;2024-03-02T16:03:17;12.80;99.90
9768;DHT22;4923;52.520;13.494;2024-03-02T16:06:06;12.70;99.90
9768;DHT22;4923;52.520;13.494;2024-03-02T16:08:52;12.60;99.90
9768;DHT22;4923;52.520;13.494;2024-03-02T16:11:41;12.50;99.90
9768;DHT22;4923;52.520;13.494;2024-03-02T16:14:28;12.40;99.90
9768;DHT22;4923;52.520;13.494;2024-03-02T16:17:15;12.30;99.90
9768;DHT22;4923;52.520;13.494;2024-03-02T16:20:02;12.20;99.90
9768;DHT22;4923;52.520;13.494;2024-03-02T16:22:52;12.10;99.90
9768;DHT22;4923;52.520;13.494;2024-03-02T16:25:40;12.00;99.90
9768;DHT22;4923;52.520;13.494;2024-03-02T16:28:27;11.90;99.90
9768;DHT22;4923;52.520;13.494;2024-03-02T16:31:15;11.80;99.90
9768;DHT22;4923;52.520;13.494;2024-03-02T16:34:03;11.80;99.90
9768;DHT22;4923;52.520;13.494;2024-03-02T16:36:50;11.70;99.90
9768;DHT22;4923;52.520;13.494;2024-03-02T16:39:38;11.60;99.90
9768;DHT22;4923;52.520;13.494;2024-03-02T16:42:25;11.50;99.90
9768;DHT22;4923;52.520;13.494;2024-03-02T16:45:12;11.40;99.90
9768;DHT22;4923;52.520;13.494;2024-03-02T16:47:59;11.40;99.90
9768;DHT22;4923;52.520;13.494;2024-03-02T16:50:46;11.30;99.90
9768;DHT22;4923;52.520;13.494;2024-03-02T16:53:33;11.30;99.90
9768;DHT22;4923;52.520;13.494;2024-03-02T16:56:22;11.30;99.90
9768;DHT22;4923;52.520;13.494;2024-03-02T16:59:09;11.40;99.90
9768;DHT22;4923;52.520;13.494;2024-03-02T17:01:56;11.30;99.90
9768;DHT22;4923;52.520;13.494;2024-03-02T17:04:44;11.30;99.90
9768;DHT22;4923;52.520;13.494;2024-03-02T17:07:31;11.20;99.90
9768;DHT22;4923;52.520;13.494;2024-03-02T17:10:18;11.20;99.90
9768;DHT22;4923;52.520;13.494;2024-03-02T17:13:06;11.10;99.90
9768;DHT22;4923;52.520;13.494;2024-03-02T17:15:53;11.00;99.90
9768;DHT22;4923;52.520;13.494;2024-03-02T17:18:40;11.00;99.90
9768;DHT22;4923;52.520;13.494;2024-03-02T17:21:26;10.90;99.90
9768;DHT22;4923;52.520;13.494;2024-03-02T17:24:13;10.80;99.90
9768;DHT22;4923;52.520;13.494;2024-03-02T17:27:00;10.70;99.90
9768;DHT22;4923;52.520;13.494;2024-03-02T17:29:49;10.60;99.90
9768;DHT22;4923;52.520;13.494;2024-03-02T17:32:36;10.60;99.90
9768;DHT22;4923;52.520;13.494;2024-03-02T17:35:23;10.50;99.90
9768;DHT22;4923;52.520;13.494;2024-03-02T17:38:10;10.60;99.90
9768;DHT22;4923;52.520;13.494;2024-03-02T17:40:57;10.70;99.90
9768;DHT22;4923;52.520;13.494;2024-03-02T17:43:44;10.60;99.90
9768;DHT22;4923;52.520;13.494;2024-03-02T17:46:32;10.50;99.90
9768;DHT22;4923;52.520;13.494;2024-03-02T17:49:19;10.40;99.90
9768;DHT22;4923;52.520;13.494;2024-03-02T17:52:06;10.30;99.90
9768;DHT22;4923;52.520;13.494;2024-03-02T17:54:53;10.40;99.90
9768;DHT22;4923;52.520;13.494;2024-03-02T17:57:40;10.30;99.90
9768;DHT22;4923;52.520;13.494;2024-03-02T18:00:26;10.30;99.90
9768;DHT22;4923;52.520;13.494;2024-03-02T18:03:15;10.20;99.90
9768;DHT22;4923;52.520;13.494;2024-03-02T18:06:02;10.20;99.90
9768;DHT22;4923;52.520;13.494;2024-03-02T18:08:49;10.10;99.90
9768;DHT22;4923;52.520;13.494;2024-03-02T18:11:36;10.10;99.90